Terminal Aerodrome Forecast
Issued by NWS

Home | Current Version | Previous Version | Text Only | Print | Product List | Glossary On
Versions: 1 2 3 4 5 6 7 8 9 10 11 12 13 14 15 16 17 18 19 20 21 22 23
528
FTUS41 KBTV 111139
TAFMPV
TAF
KMPV 111139Z 1112/1212 31005KT P6SM VCSH OVC040
      TEMPO 1112/1115 1 1/2SM -SN BR OVC020
     FM111500 32011G18KT P6SM VCSH OVC045
     FM111800 31010G19KT P6SM VCSH OVC035
     FM112200 30012G18KT P6SM BKN035
     FM120800 30007KT P6SM SCT040=

USA.gov is the U.S. government's official web portal to all federal, state and local government web resources and services.